createdAt,value
2023-04-09T00:02:06.666Z,86.93
2023-04-09T00:04:33.065Z,86.36
2023-04-09T00:06:59.465Z,86.45
2023-04-09T00:09:25.829Z,86.68
2023-04-09T00:11:52.394Z,86.78
2023-04-09T00:14:18.761Z,86.86
2023-04-09T00:16:45.131Z,86.37
2023-04-09T00:19:11.487Z,86.66
2023-04-09T00:21:37.844Z,86.73
2023-04-09T00:24:04.178Z,87.04
2023-04-09T00:26:30.531Z,87.09
2023-04-09T00:28:56.894Z,86.65
2023-04-09T00:31:23.336Z,86.86
2023-04-09T00:33:49.937Z,86.88
2023-04-09T00:36:16.542Z,86.88
2023-04-09T00:38:43.143Z,86.60
2023-04-09T00:41:09.485Z,86.62
2023-04-09T00:43:35.868Z,86.49
2023-04-09T00:46:02.253Z,86.18
2023-04-09T00:48:28.689Z,86.08
2023-04-09T00:50:55.035Z,86.25
2023-04-09T00:53:21.382Z,86.21
2023-04-09T00:55:47.732Z,86.04
2023-04-09T00:58:14.090Z,86.51
2023-04-09T01:00:40.803Z,86.21
2023-04-09T01:03:07.292Z,86.03
2023-04-09T01:05:33.717Z,85.88
2023-04-09T01:08:00.089Z,85.78
2023-04-09T01:10:26.486Z,86.19
2023-04-09T01:12:52.822Z,86.01
2023-04-09T01:15:19.413Z,85.62
2023-04-09T01:17:45.788Z,85.58
2023-04-09T01:20:12.144Z,85.03
2023-04-09T01:22:38.479Z,85.75
2023-04-09T01:25:04.826Z,85.32
2023-04-09T01:27:31.160Z,85.02
2023-04-09T01:29:57.714Z,85.35
2023-04-09T01:32:24.054Z,85.50
2023-04-09T01:34:50.402Z,85.28
2023-04-09T01:37:16.738Z,85.03
2023-04-09T01:39:43.082Z,85.21
2023-04-09T01:42:09.440Z,85.02
2023-04-09T01:44:35.778Z,85.12
2023-04-09T01:47:02.125Z,85.11
2023-04-09T01:49:28.471Z,85.19
2023-04-09T01:51:54.819Z,85.11
2023-04-09T01:54:21.157Z,85.01
2023-04-09T01:56:47.533Z,85.09
2023-04-09T01:59:13.876Z,85.04
2023-04-09T02:01:40.272Z,85.46
2023-04-09T02:04:06.655Z,85.20
2023-04-09T02:06:33.010Z,84.90
2023-04-09T02:08:59.364Z,85.19
2023-04-09T02:11:25.929Z,85.05
2023-04-09T02:13:52.475Z,85.36
2023-04-09T02:16:18.894Z,85.14
2023-04-09T02:18:45.575Z,84.95
2023-04-09T02:21:11.920Z,84.89
2023-04-09T02:23:38.493Z,84.66
2023-04-09T02:26:05.035Z,84.59
2023-04-09T02:28:31.363Z,84.63
2023-04-09T02:30:57.930Z,84.43
2023-04-09T02:33:24.321Z,83.92
2023-04-09T02:35:50.688Z,84.33
2023-04-09T02:38:17.082Z,84.26
2023-04-09T02:40:43.626Z,83.70
2023-04-09T02:43:10.059Z,84.23
2023-04-09T02:45:36.615Z,83.50
2023-04-09T02:48:02.968Z,84.00
2023-04-09T02:50:29.527Z,83.95
2023-04-09T02:52:56.135Z,83.59
2023-04-09T02:55:22.439Z,83.86
2023-04-09T02:57:48.824Z,83.95
2023-04-09T03:00:15.178Z,84.00
2023-04-09T03:02:41.713Z,83.06
2023-04-09T03:05:08.230Z,83.02
2023-04-09T03:07:34.570Z,83.14
2023-04-09T03:10:00.911Z,83.13
2023-04-09T03:12:27.249Z,82.80
2023-04-09T03:14:53.596Z,83.20
2023-04-09T03:17:19.916Z,83.39
2023-04-09T03:19:46.485Z,83.45
2023-04-09T03:22:12.827Z,82.78
2023-04-09T03:24:39.165Z,83.10
2023-04-09T03:27:05.708Z,83.01
2023-04-09T03:29:32.053Z,82.85
2023-04-09T03:31:58.393Z,83.12
2023-04-09T03:34:24.737Z,83.02
2023-04-09T03:36:51.089Z,83.19
2023-04-09T03:39:17.420Z,83.64
2023-04-09T03:41:43.974Z,83.58
2023-04-09T03:44:10.298Z,83.99
2023-04-09T03:46:36.630Z,83.22
2023-04-09T03:49:03.024Z,83.26
2023-04-09T03:51:29.351Z,83.34
2023-04-09T03:53:55.898Z,82.93
2023-04-09T03:56:22.455Z,82.97
2023-04-09T03:58:48.775Z,82.41
2023-04-09T04:01:15.136Z,82.44
2023-04-09T04:03:41.825Z,83.15
2023-04-09T04:06:08.267Z,82.72
2023-04-09T04:08:34.821Z,82.69
2023-04-09T04:11:01.174Z,83.26
2023-04-09T04:13:27.569Z,82.66
2023-04-09T04:15:54.184Z,82.76
2023-04-09T04:18:20.537Z,83.00
2023-04-09T04:20:46.884Z,82.95
2023-04-09T04:23:13.438Z,82.64
2023-04-09T04:25:39.770Z,83.00
2023-04-09T04:28:06.113Z,83.10
2023-04-09T04:30:32.451Z,83.46
2023-04-09T04:32:58.889Z,82.91
2023-04-09T04:35:25.282Z,82.64
2023-04-09T04:37:51.634Z,83.22
2023-04-09T04:40:17.981Z,83.07
2023-04-09T04:42:44.352Z,83.39
2023-04-09T04:45:10.707Z,82.66
2023-04-09T04:47:37.083Z,82.74
2023-04-09T04:50:03.437Z,83.36
2023-04-09T04:52:29.815Z,83.21
2023-04-09T04:54:56.385Z,82.94
2023-04-09T04:57:22.718Z,82.41
2023-04-09T04:59:49.283Z,82.96
2023-04-09T05:02:15.710Z,82.06
2023-04-09T05:04:42.127Z,82.69
2023-04-09T05:07:08.464Z,82.00
2023-04-09T05:09:34.802Z,82.27
2023-04-09T05:12:01.162Z,82.26
2023-04-09T05:14:27.510Z,82.06
2023-04-09T05:16:53.881Z,82.13
2023-04-09T05:19:20.221Z,82.54
2023-04-09T05:21:47.367Z,82.17
2023-04-09T05:24:13.967Z,81.91
2023-04-09T05:26:40.295Z,82.22
2023-04-09T05:29:06.636Z,82.20
2023-04-09T05:31:32.971Z,82.15
2023-04-09T05:33:59.306Z,82.39
2023-04-09T05:36:25.844Z,82.46
2023-04-09T05:38:52.384Z,81.92
2023-04-09T05:41:22.645Z,82.73
2023-04-09T05:43:49.006Z,81.82
2023-04-09T05:46:15.404Z,82.43
2023-04-09T05:48:41.843Z,82.20
2023-04-09T05:51:08.199Z,82.11
2023-04-09T05:53:34.567Z,82.52
2023-04-09T05:56:01.129Z,82.23
2023-04-09T05:58:27.473Z,82.09
2023-04-09T06:00:53.808Z,82.04
2023-04-09T06:03:20.686Z,82.13
2023-04-09T06:05:47.227Z,82.14
2023-04-09T06:08:13.606Z,81.96
2023-04-09T06:10:41.449Z,82.04
2023-04-09T06:13:07.916Z,81.80
2023-04-09T06:15:37.590Z,82.01
2023-04-09T06:18:03.993Z,81.85
2023-04-09T06:20:30.583Z,81.88
2023-04-09T06:22:56.920Z,81.79
2023-04-09T06:25:23.469Z,81.78
2023-04-09T06:27:49.817Z,81.79
2023-04-09T06:30:16.159Z,81.77
2023-04-09T06:32:53.198Z,81.89
2023-04-09T06:35:21.072Z,81.95
2023-04-09T06:37:47.648Z,81.93
2023-04-09T06:40:14.006Z,81.95
2023-04-09T06:42:40.339Z,81.90
2023-04-09T06:45:06.678Z,81.91
2023-04-09T06:47:33.747Z,82.19
2023-04-09T06:50:00.141Z,81.81
2023-04-09T06:52:26.518Z,82.07
2023-04-09T06:54:53.055Z,82.00
2023-04-09T06:57:19.375Z,81.85
2023-04-09T06:59:45.956Z,81.90
2023-04-09T07:02:12.395Z,82.11
2023-04-09T07:04:39.191Z,82.06
2023-04-09T07:07:05.686Z,82.00
2023-04-09T07:09:32.259Z,81.88
2023-04-09T07:11:58.619Z,81.98
2023-04-09T07:14:25.158Z,82.17
2023-04-09T07:16:53.135Z,82.19
2023-04-09T07:19:19.421Z,81.81
2023-04-09T07:21:45.804Z,81.82
2023-04-09T07:24:12.142Z,81.70
2023-04-09T07:26:38.483Z,81.89
2023-04-09T07:29:04.821Z,81.86
2023-04-09T07:31:31.422Z,82.37
2023-04-09T07:33:58.699Z,81.93
2023-04-09T07:36:25.107Z,82.23
2023-04-09T07:38:51.883Z,81.90
2023-04-09T07:41:18.680Z,81.82
2023-04-09T07:43:45.024Z,82.05
2023-04-09T07:46:11.386Z,82.42
2023-04-09T07:48:37.741Z,82.35
2023-04-09T07:51:04.071Z,81.88
2023-04-09T07:53:30.427Z,82.21
2023-04-09T07:55:56.764Z,82.67
2023-04-09T07:58:23.100Z,82.82
2023-04-09T08:00:49.446Z,82.59
2023-04-09T08:03:15.895Z,82.08
2023-04-09T08:05:42.367Z,82.40
2023-04-09T08:08:08.708Z,82.62
2023-04-09T08:10:35.045Z,82.59
2023-04-09T08:13:01.377Z,83.10
2023-04-09T08:15:27.771Z,83.36
2023-04-09T08:17:54.179Z,83.06
2023-04-09T08:20:20.548Z,82.44
2023-04-09T08:22:46.882Z,82.52
2023-04-09T08:25:13.243Z,82.57
2023-04-09T08:27:39.605Z,83.90
2023-04-09T08:30:06.180Z,83.42
2023-04-09T08:32:32.550Z,83.86
2023-04-09T08:34:58.960Z,83.66
2023-04-09T08:37:25.310Z,83.78
2023-04-09T08:39:51.634Z,83.07
2023-04-09T08:42:17.965Z,83.09
2023-04-09T08:44:44.296Z,82.28
2023-04-09T08:47:11.832Z,82.24
2023-04-09T08:49:38.162Z,82.60
2023-04-09T08:52:04.719Z,82.45
2023-04-09T08:54:32.078Z,82.44
2023-04-09T08:56:58.705Z,82.69
2023-04-09T08:59:25.049Z,82.26
2023-04-09T09:01:51.490Z,82.04
2023-04-09T09:04:17.968Z,81.99
2023-04-09T09:06:44.638Z,81.74
2023-04-09T09:09:10.977Z,81.91
2023-04-09T09:11:37.318Z,81.89
2023-04-09T09:14:03.677Z,81.99
2023-04-09T09:16:30.258Z,82.51
2023-04-09T09:18:57.164Z,82.63
2023-04-09T09:21:23.774Z,84.32
2023-04-09T09:23:50.113Z,84.26
2023-04-09T09:26:16.618Z,82.95
2023-04-09T09:28:43.717Z,82.62
2023-04-09T09:31:10.154Z,82.07
2023-04-09T09:33:36.533Z,82.79
2023-04-09T09:36:02.895Z,83.00
2023-04-09T09:38:29.274Z,82.81
2023-04-09T09:40:55.610Z,82.83
2023-04-09T09:43:22.152Z,82.85
2023-04-09T09:45:48.510Z,82.77
2023-04-09T09:48:14.891Z,82.77
2023-04-09T09:50:41.228Z,83.19
2023-04-09T09:53:07.595Z,83.17
2023-04-09T09:55:33.952Z,82.86
2023-04-09T09:58:00.304Z,83.29
2023-04-09T10:00:26.664Z,83.58
2023-04-09T10:02:53.092Z,83.24
2023-04-09T10:05:19.494Z,83.65
2023-04-09T10:07:45.823Z,83.69
2023-04-09T10:10:12.375Z,83.13
2023-04-09T10:12:38.917Z,83.02
2023-04-09T10:15:05.256Z,83.06
2023-04-09T10:17:31.869Z,82.46
2023-04-09T10:19:58.452Z,82.22
2023-04-09T10:22:24.782Z,81.97
2023-04-09T10:24:51.107Z,81.52
2023-04-09T10:27:17.668Z,82.11
2023-04-09T10:29:44.062Z,81.57
2023-04-09T10:32:10.603Z,81.61
2023-04-09T10:34:36.937Z,81.42
2023-04-09T10:37:03.291Z,81.28
2023-04-09T10:39:29.626Z,81.09
2023-04-09T10:41:55.978Z,82.50
2023-04-09T10:44:22.341Z,81.73
2023-04-09T10:46:48.735Z,81.64
2023-04-09T10:49:15.129Z,81.82
2023-04-09T10:51:41.701Z,82.27
2023-04-09T10:54:08.036Z,82.16
2023-04-09T10:56:34.372Z,81.30
2023-04-09T10:59:00.708Z,82.02
2023-04-09T11:01:27.075Z,81.54
2023-04-09T11:03:53.453Z,81.52
2023-04-09T11:06:19.820Z,81.55
2023-04-09T11:08:46.148Z,81.34
2023-04-09T11:11:12.489Z,81.42
2023-04-09T11:13:38.839Z,81.31
2023-04-09T11:16:05.193Z,81.50
2023-04-09T11:18:32.565Z,81.73
2023-04-09T11:20:58.896Z,81.59
2023-04-09T11:23:25.457Z,81.40
2023-04-09T11:25:51.819Z,81.70
2023-04-09T11:28:18.141Z,82.02
2023-04-09T11:30:44.485Z,82.14
2023-04-09T11:33:10.910Z,81.89
2023-04-09T11:35:37.428Z,81.61
2023-04-09T11:38:03.837Z,82.32
2023-04-09T11:40:30.180Z,82.45
2023-04-09T11:42:56.525Z,82.68
2023-04-09T11:45:22.878Z,82.69
2023-04-09T11:47:49.306Z,83.04
2023-04-09T11:50:15.695Z,83.19
2023-04-09T11:52:42.033Z,82.53
2023-04-09T11:55:08.352Z,82.02
2023-04-09T11:57:34.700Z,82.44
2023-04-09T12:00:03.149Z,81.92
2023-04-09T12:02:31.057Z,82.40
2023-04-09T12:04:57.673Z,83.51
2023-04-09T12:07:24.315Z,83.69
2023-04-09T12:09:50.879Z,82.09
2023-04-09T12:12:17.447Z,82.50
2023-04-09T12:14:43.814Z,84.37
2023-04-09T12:17:10.365Z,84.35
2023-04-09T12:19:36.697Z,83.95
2023-04-09T12:22:03.263Z,83.58
2023-04-09T12:24:29.612Z,84.52
2023-04-09T12:26:56.162Z,83.45
2023-04-09T12:29:22.506Z,82.32
2023-04-09T12:31:48.911Z,81.35
2023-04-09T12:34:15.272Z,82.23
2023-04-09T12:36:41.609Z,81.80
2023-04-09T12:39:07.963Z,80.40
2023-04-09T12:41:34.314Z,81.23
2023-04-09T12:44:00.675Z,83.81
2023-04-09T12:46:27.144Z,84.08
2023-04-09T12:48:53.556Z,84.49
2023-04-09T12:51:20.107Z,84.97
2023-04-09T12:53:46.431Z,85.24
2023-04-09T12:56:12.778Z,83.68
2023-04-09T12:58:39.143Z,81.47
2023-04-09T13:01:05.519Z,81.17
2023-04-09T13:03:32.398Z,82.61
2023-04-09T13:05:58.929Z,82.73
2023-04-09T13:08:25.551Z,80.85
2023-04-09T13:10:51.903Z,80.93
2023-04-09T13:13:18.461Z,81.05
2023-04-09T13:15:44.822Z,80.58
2023-04-09T13:18:11.220Z,80.73
2023-04-09T13:20:37.603Z,81.65
2023-04-09T13:23:03.930Z,81.40
2023-04-09T13:25:30.274Z,81.76
2023-04-09T13:27:59.612Z,81.63
2023-04-09T13:30:26.514Z,81.12
2023-04-09T13:32:52.887Z,81.66
2023-04-09T13:35:19.255Z,81.15
2023-04-09T13:37:45.619Z,81.24
2023-04-09T13:40:12.191Z,81.14
2023-04-09T13:42:38.543Z,81.27
2023-04-09T13:45:04.899Z,81.23
2023-04-09T13:47:31.295Z,81.17
2023-04-09T13:49:57.672Z,81.24
2023-04-09T13:52:24.641Z,81.34
2023-04-09T13:54:51.777Z,81.50
2023-04-09T13:57:18.117Z,81.56
2023-04-09T13:59:44.465Z,81.90
2023-04-09T14:02:11.154Z,81.82
2023-04-09T14:04:37.626Z,81.87
2023-04-09T14:07:04.034Z,81.87
2023-04-09T14:09:30.386Z,81.85
2023-04-09T14:11:56.719Z,81.99
2023-04-09T14:14:23.248Z,82.22
2023-04-09T14:16:49.793Z,82.09
2023-04-09T14:19:16.133Z,81.96
2023-04-09T14:21:43.093Z,82.09
2023-04-09T14:24:09.443Z,82.35
2023-04-09T14:26:35.789Z,82.53
2023-04-09T14:29:02.180Z,82.22
2023-04-09T14:31:28.821Z,82.31
2023-04-09T14:33:55.198Z,82.16
2023-04-09T14:36:21.740Z,82.09
2023-04-09T14:38:48.076Z,82.08
2023-04-09T14:41:14.405Z,82.13
2023-04-09T14:43:40.744Z,82.26
2023-04-09T14:46:07.097Z,82.16
2023-04-09T14:48:33.671Z,82.18
2023-04-09T14:51:00.043Z,82.42
2023-04-09T14:53:26.616Z,82.58
2023-04-09T14:55:52.979Z,82.61
2023-04-09T14:58:19.318Z,82.65
2023-04-09T15:00:45.656Z,82.65
2023-04-09T15:03:12.365Z,82.78
2023-04-09T15:05:38.893Z,82.83
2023-04-09T15:08:05.257Z,83.07
2023-04-09T15:10:31.595Z,82.77
2023-04-09T15:12:57.937Z,82.69
2023-04-09T15:15:24.267Z,82.74
2023-04-09T15:17:50.689Z,82.98
2023-04-09T15:20:17.101Z,83.32
2023-04-09T15:22:43.455Z,83.56
2023-04-09T15:25:10.370Z,83.67
2023-04-09T15:27:37.837Z,83.72
2023-04-09T15:30:04.492Z,83.81
2023-04-09T15:32:30.931Z,83.77
2023-04-09T15:34:57.301Z,83.66
2023-04-09T15:37:23.634Z,83.29
2023-04-09T15:39:49.980Z,83.21
2023-04-09T15:42:16.319Z,83.18
2023-04-09T15:44:42.879Z,83.11
2023-04-09T15:47:09.220Z,82.88
2023-04-09T15:49:35.550Z,82.90
2023-04-09T15:52:02.115Z,83.07
2023-04-09T15:54:28.457Z,83.14
2023-04-09T15:56:54.841Z,83.08
2023-04-09T15:59:21.205Z,83.00
2023-04-09T16:01:47.579Z,83.19
2023-04-09T16:04:13.960Z,83.40
2023-04-09T16:06:40.341Z,83.46
2023-04-09T16:09:06.686Z,83.41
2023-04-09T16:11:33.024Z,83.44
2023-04-09T16:13:59.386Z,83.54
2023-04-09T16:16:25.821Z,83.72
2023-04-09T16:18:52.549Z,83.81
2023-04-09T16:21:19.199Z,83.82
2023-04-09T16:23:45.751Z,83.88
2023-04-09T16:26:12.092Z,83.76
2023-04-09T16:28:38.462Z,83.75
2023-04-09T16:31:05.028Z,83.89
2023-04-09T16:33:31.374Z,83.92
2023-04-09T16:35:57.770Z,83.87
2023-04-09T16:38:24.137Z,83.87
2023-04-09T16:40:50.512Z,83.72
2023-04-09T16:43:16.863Z,83.50
2023-04-09T16:45:43.230Z,83.49
2023-04-09T16:48:09.670Z,83.62
2023-04-09T16:50:36.086Z,83.71
2023-04-09T16:53:02.449Z,83.80
2023-04-09T16:55:28.802Z,83.82
2023-04-09T16:57:55.150Z,83.86
2023-04-09T17:00:21.492Z,83.96
2023-04-09T17:02:48.006Z,83.95
2023-04-09T17:05:14.475Z,83.97
2023-04-09T17:07:40.821Z,83.85
2023-04-09T17:10:07.128Z,83.89
2023-04-09T17:12:33.462Z,83.74
2023-04-09T17:15:00.037Z,83.59
2023-04-09T17:17:26.399Z,83.66
2023-04-09T17:19:52.770Z,83.50
2023-04-09T17:22:19.123Z,83.59
2023-04-09T17:24:45.481Z,83.52
2023-04-09T17:27:11.803Z,83.47
2023-04-09T17:29:38.137Z,83.56
2023-04-09T17:32:04.477Z,83.55
2023-04-09T17:34:30.807Z,83.62
2023-04-09T17:36:57.141Z,83.57
2023-04-09T17:39:23.711Z,83.66
2023-04-09T17:41:50.059Z,83.76
2023-04-09T17:44:16.416Z,83.79
2023-04-09T17:46:42.799Z,83.92
2023-04-09T17:49:09.188Z,83.77
2023-04-09T17:51:35.528Z,83.78
2023-04-09T17:54:01.904Z,83.75
2023-04-09T17:56:28.246Z,83.67
2023-04-09T17:58:54.961Z,83.74
2023-04-09T18:01:21.560Z,83.66
2023-04-09T18:03:48.514Z,83.54
2023-04-09T18:06:15.092Z,83.46
2023-04-09T18:08:41.431Z,83.61
2023-04-09T18:11:12.286Z,83.25
2023-04-09T18:13:39.796Z,83.34
2023-04-09T18:16:06.184Z,83.45
2023-04-09T18:18:32.630Z,83.28
2023-04-09T18:20:59.350Z,83.47
2023-04-09T18:23:25.711Z,83.21
2023-04-09T18:25:52.085Z,83.40
2023-04-09T18:28:18.421Z,83.41
2023-04-09T18:30:44.758Z,83.27
2023-04-09T18:33:11.311Z,83.16
2023-04-09T18:35:37.678Z,83.28
2023-04-09T18:38:04.090Z,83.12
2023-04-09T18:40:30.429Z,83.47
2023-04-09T18:42:56.998Z,83.44
2023-04-09T18:45:23.352Z,83.24
2023-04-09T18:47:49.980Z,83.25
2023-04-09T18:50:16.760Z,83.59
2023-04-09T18:52:43.303Z,83.51
2023-04-09T18:55:09.636Z,83.57
2023-04-09T18:57:35.975Z,83.47
2023-04-09T19:00:02.845Z,83.47
2023-04-09T19:02:29.352Z,83.26
2023-04-09T19:04:56.151Z,83.61
2023-04-09T19:07:22.515Z,83.43
2023-04-09T19:09:48.860Z,83.43
2023-04-09T19:12:15.206Z,83.79
2023-04-09T19:14:41.545Z,83.90
2023-04-09T19:17:08.337Z,83.55
2023-04-09T19:19:34.676Z,83.52
2023-04-09T19:22:01.004Z,83.61
2023-04-09T19:24:27.549Z,83.70
2023-04-09T19:26:53.900Z,83.58
2023-04-09T19:29:20.253Z,83.71
2023-04-09T19:31:46.691Z,83.87
2023-04-09T19:34:13.099Z,83.64
2023-04-09T19:36:39.431Z,83.83
2023-04-09T19:39:05.779Z,83.74
2023-04-09T19:41:32.332Z,83.72
2023-04-09T19:43:58.662Z,83.76
2023-04-09T19:46:25.008Z,83.94
2023-04-09T19:48:51.508Z,83.47
2023-04-09T19:51:18.030Z,83.57
2023-04-09T19:53:46.087Z,83.90
2023-04-09T19:56:13.626Z,83.78
2023-04-09T19:58:39.985Z,83.83
2023-04-09T20:01:06.568Z,83.90
2023-04-09T20:03:33.447Z,83.85
2023-04-09T20:05:59.872Z,83.53
2023-04-09T20:08:26.253Z,83.80
2023-04-09T20:10:52.607Z,84.03
2023-04-09T20:13:19.153Z,83.82
2023-04-09T20:15:45.491Z,83.75
2023-04-09T20:18:11.855Z,83.61
2023-04-09T20:20:38.455Z,84.15
2023-04-09T20:23:04.789Z,84.02
2023-04-09T20:25:31.376Z,84.09
2023-04-09T20:27:57.719Z,83.92
2023-04-09T20:30:24.079Z,84.22
2023-04-09T20:32:50.482Z,84.11
2023-04-09T20:35:17.088Z,84.21
2023-04-09T20:37:43.414Z,84.09
2023-04-09T20:40:09.773Z,83.94
2023-04-09T20:42:36.355Z,84.28
2023-04-09T20:45:02.702Z,84.17
2023-04-09T20:47:29.113Z,83.94
2023-04-09T20:49:55.481Z,84.17
2023-04-09T20:52:22.029Z,84.33
2023-04-09T20:54:48.369Z,84.34
2023-04-09T20:57:14.925Z,83.85
2023-04-09T20:59:41.273Z,84.26
2023-04-09T21:02:07.732Z,84.40
2023-04-09T21:04:34.153Z,84.12
2023-04-09T21:07:00.478Z,84.39
2023-04-09T21:09:26.800Z,84.38
2023-04-09T21:11:53.135Z,84.40
2023-04-09T21:14:19.468Z,84.32
2023-04-09T21:16:45.849Z,84.29
2023-04-09T21:19:12.266Z,84.44
2023-04-09T21:21:38.596Z,84.27
2023-04-09T21:24:05.174Z,84.48
2023-04-09T21:26:41.736Z,84.50
2023-04-09T21:29:16.137Z,84.40
2023-04-09T21:31:42.505Z,84.39
2023-04-09T21:34:08.873Z,84.47
2023-04-09T21:36:35.216Z,84.54
2023-04-09T21:39:01.589Z,84.60
2023-04-09T21:41:27.942Z,84.43
2023-04-09T21:43:54.283Z,84.06
2023-04-09T21:46:20.665Z,83.91
2023-04-09T21:48:47.057Z,84.30
2023-04-09T21:51:16.674Z,83.99
2023-04-09T21:53:43.010Z,84.56
2023-04-09T21:56:09.386Z,84.20
2023-04-09T21:58:35.841Z,84.13
2023-04-09T22:01:02.409Z,84.28
2023-04-09T22:03:29.062Z,84.43
2023-04-09T22:05:55.810Z,84.75
2023-04-09T22:08:22.151Z,84.60
2023-04-09T22:10:51.513Z,85.05
2023-04-09T22:13:18.066Z,84.10
2023-04-09T22:15:44.459Z,84.13
2023-04-09T22:18:10.818Z,84.56
2023-04-09T22:20:37.171Z,84.55
2023-04-09T22:23:03.748Z,83.56
2023-04-09T22:25:30.163Z,83.88
2023-04-09T22:27:56.529Z,84.55
2023-04-09T22:30:22.884Z,84.47
2023-04-09T22:32:49.250Z,84.16
2023-04-09T22:35:15.619Z,84.12
2023-04-09T22:37:42.162Z,83.38
2023-04-09T22:40:08.723Z,83.42
2023-04-09T22:42:35.075Z,84.17
2023-04-09T22:45:02.213Z,84.10
2023-04-09T22:47:28.572Z,83.73
2023-04-09T22:49:54.959Z,83.79
2023-04-09T22:52:21.300Z,82.90
2023-04-09T22:54:47.627Z,83.17
2023-04-09T22:57:14.202Z,82.82
2023-04-09T22:59:41.047Z,83.52
2023-04-09T23:02:07.667Z,83.90
2023-04-09T23:04:34.154Z,83.05
2023-04-09T23:07:00.924Z,83.38
2023-04-09T23:09:27.468Z,84.48
2023-04-09T23:11:54.006Z,83.12
2023-04-09T23:14:20.330Z,84.27
2023-04-09T23:19:30.995Z,82.54
2023-04-09T23:21:57.330Z,84.48
2023-04-09T23:24:23.691Z,84.22
2023-04-09T23:26:50.081Z,82.91
2023-04-09T23:29:16.409Z,83.28
2023-04-09T23:31:42.745Z,84.35
2023-04-09T23:34:09.125Z,83.81
2023-04-09T23:36:35.451Z,83.33
2023-04-09T23:39:01.803Z,83.29
2023-04-09T23:41:28.153Z,83.71
2023-04-09T23:43:54.682Z,83.28
2023-04-09T23:46:21.537Z,84.24
2023-04-09T23:48:47.895Z,83.56
2023-04-09T23:51:14.239Z,84.50
2023-04-09T23:53:40.582Z,84.35
2023-04-09T23:56:07.142Z,83.00
2023-04-09T23:58:33.499Z,84.07
